Time;durP1;ratioP1;P1;durP2;ratioP2;P2;SDS_P1;SDS_P2;PMS_P1;PMS_P2;Temp;Humidity;BMP_temperature;BMP_pressure;BME280_temperature;BME280_humidity;BME280_pressure;Samples;Min_cycle;Max_cycle;Signal;HPM_P1;HPM_P2
2022/06/05 00:01:13;;;;;;;4.00;3.73;;;24.10;58.20;;;;;;5097019;27;20538;-48
2022/06/05 00:04:01;;;;;;;3.33;3.13;;;24.10;58.30;;;;;;5124941;27;1199516;-46
2022/06/05 00:06:49;;;;;;;4.73;3.60;;;24.10;58.30;;;;;;5070748;28;20544;-49
2022/06/05 00:09:38;;;;;;;3.87;3.57;;;24.10;58.30;;;;;;5105216;27;20948;-47
2022/06/05 00:12:22;;;;;;;3.67;3.47;;;24.20;58.50;;;;;;5055664;27;20553;-48
2022/06/05 00:15:04;;;;;;;3.50;3.30;;;24.20;58.50;;;;;;5101170;27;20533;-48
2022/06/05 00:17:45;;;;;;;3.80;3.60;;;24.10;58.40;;;;;;5061420;27;20551;-47
2022/06/05 00:20:24;;;;;;;3.60;3.40;;;24.10;58.50;;;;;;5082188;28;20572;-47
2022/06/05 00:23:06;;;;;;;3.73;3.53;;;24.10;58.50;;;;;;5065759;28;20527;-47
2022/06/05 00:25:54;;;;;;;4.10;3.80;;;24.10;58.40;;;;;;5077941;28;20514;-49
2022/06/05 00:28:39;;;;;;;3.27;3.07;;;24.20;58.50;;;;;;5109124;27;20549;-47
2022/06/05 00:31:27;;;;;;;3.40;3.20;;;24.20;58.50;;;;;;5074648;28;20545;-47
2022/06/05 00:34:08;;;;;;;3.87;3.67;;;24.20;58.30;;;;;;5122621;27;20564;-48
2022/06/05 00:37:16;;;;;;;3.57;3.37;;;24.20;58.30;;;;;;5060590;28;20906;-48
2022/06/05 00:40:10;;;;;;;3.53;3.23;;;24.20;58.30;;;;;;5143593;27;20522;-47
2022/06/05 00:42:51;;;;;;;3.97;3.77;;;24.10;58.20;;;;;;5100184;27;20573;-49
2022/06/05 00:45:32;;;;;;;3.80;3.53;;;24.10;58.20;;;;;;5120369;27;20589;-48
2022/06/05 00:48:13;;;;;;;4.00;3.70;;;24.20;58.30;;;;;;5077345;28;20536;-48
2022/06/05 00:50:54;;;;;;;4.07;3.87;;;24.10;58.20;;;;;;5073925;28;20937;-48
2022/06/05 00:53:33;;;;;;;3.60;3.40;;;24.10;58.30;;;;;;5131646;27;1209740;-48
2022/06/05 00:56:14;;;;;;;4.20;3.90;;;24.10;58.20;;;;;;5080781;27;20557;-51
2022/06/05 00:58:56;;;;;;;4.03;3.67;;;24.10;58.10;;;;;;5072113;28;20546;-48
2022/06/05 01:01:37;;;;;;;3.57;3.37;;;24.10;58.10;;;;;;5112132;27;20813;-48
2022/06/05 01:04:23;;;;;;;3.10;2.90;;;24.10;58.10;;;;;;5080436;28;20675;-48
2022/06/05 01:07:05;;;;;;;3.60;3.40;;;24.10;58.20;;;;;;5051354;27;20554;-48
2022/06/05 01:09:48;;;;;;;3.80;3.50;;;24.10;58.20;;;;;;5081683;27;20525;-48
2022/06/05 01:12:38;;;;;;;3.87;3.57;;;24.10;58.10;;;;;;5064118;28;21065;-47
2022/06/05 01:15:23;;;;;;;3.87;3.67;;;24.10;58.10;;;;;;5101903;27;20535;-48
2022/06/05 01:18:17;;;;;;;3.70;3.50;;;24.10;58.20;;;;;;5122127;27;21027;-47
2022/06/05 01:21:10;;;;;;;3.87;3.60;;;24.20;59.40;;;;;;5070906;28;20542;-48
2022/06/05 01:24:07;;;;;;;3.50;3.30;;;24.10;58.10;;;;;;5080688;28;20512;-48
2022/06/05 01:26:53;;;;;;;4.00;3.80;;;24.10;58.20;;;;;;5103011;27;20611;-47
2022/06/05 01:29:41;;;;;;;2.93;2.73;;;24.10;58.10;;;;;;5079251;28;20580;-48
2022/06/05 01:32:32;;;;;;;3.30;3.10;;;24.10;58.10;;;;;;5074753;27;20562;-48
2022/06/05 01:35:18;;;;;;;4.00;3.70;;;24.10;58.00;;;;;;5141121;27;20580;-48
2022/06/05 01:38:04;;;;;;;4.40;4.07;;;24.10;58.00;;;;;;5097359;27;20546;-49
2022/06/05 01:40:47;;;;;;;4.40;4.10;;;24.10;58.00;;;;;;5068025;28;21053;-48
2022/06/05 01:43:32;;;;;;;4.60;4.30;;;24.10;57.80;;;;;;5075761;27;20568;-48
2022/06/05 01:46:17;;;;;;;3.33;3.13;;;24.10;57.80;;;;;;5103579;27;20946;-48
2022/06/05 01:49:05;;;;;;;4.33;4.13;;;24.10;57.80;;;;;;5077278;28;20536;-49
2022/06/05 01:51:53;;;;;;;4.17;3.87;;;24.10;57.80;;;;;;5108596;27;20527;-47
2022/06/05 01:54:40;;;;;;;4.03;3.60;;;24.10;57.90;;;;;;5120120;27;20515;-47
2022/06/05 01:57:23;;;;;;;4.43;4.13;;;24.10;57.80;;;;;;5075225;27;21108;-47
2022/06/05 02:00:12;;;;;;;3.57;3.33;;;24.10;57.90;;;;;;5136609;27;20542;-48
2022/06/05 02:02:59;;;;;;;3.90;3.60;;;24.10;57.80;;;;;;5067667;27;21019;-48
2022/06/05 02:05:44;;;;;;;4.10;3.80;;;24.10;57.80;;;;;;5084482;28;21038;-48
2022/06/05 02:08:29;;;;;;;3.90;3.70;;;24.10;57.80;;;;;;5112449;27;20549;-48
2022/06/05 02:11:16;;;;;;;3.40;3.20;;;24.10;57.70;;;;;;5112015;27;20818;-48
2022/06/05 02:14:01;;;;;;;4.23;4.03;;;24.10;57.80;;;;;;5124138;27;20527;-47
2022/06/05 02:16:43;;;;;;;4.10;3.90;;;24.10;57.80;;;;;;5119362;27;21062;-48
2022/06/05 02:19:23;;;;;;;4.07;3.87;;;24.10;57.70;;;;;;5098056;27;20942;-47
2022/06/05 02:22:12;;;;;;;4.00;3.70;;;24.10;57.70;;;;;;5071447;28;20539;-48
2022/06/05 02:25:06;;;;;;;4.10;3.83;;;24.10;57.70;;;;;;5126521;27;20951;-48
2022/06/05 02:27:47;;;;;;;4.43;4.13;;;24.10;57.60;;;;;;5068204;27;20573;-48
2022/06/05 02:30:33;;;;;;;4.17;3.97;;;24.10;57.70;;;;;;5086245;28;21041;-48
2022/06/05 02:33:22;;;;;;;3.97;3.77;;;24.10;57.60;;;;;;5087598;28;20510;-48
2022/06/05 02:36:09;;;;;;;4.20;3.90;;;24.00;57.50;;;;;;5081819;28;20577;-48
2022/06/05 02:39:02;;;;;;;4.00;3.70;;;24.10;57.60;;;;;;5118353;27;20598;-48
2022/06/05 02:41:48;;;;;;;3.73;3.53;;;24.00;57.50;;;;;;5097203;27;20543;-49
2022/06/05 02:44:35;;;;;;;4.27;3.97;;;24.10;57.50;;;;;;5083164;28;20531;-48
2022/06/05 02:47:32;;;;;;;3.77;3.57;;;24.00;57.70;;;;;;5069783;27;20603;-48
2022/06/05 02:50:23;;;;;;;5.17;4.77;;;24.10;57.40;;;;;;5086160;28;20518;-47
2022/06/05 02:53:05;;;;;;;4.30;4.00;;;24.00;58.60;;;;;;5071417;28;20927;-47
2022/06/05 02:55:46;;;;;;;3.80;3.50;;;24.00;57.30;;;;;;5107086;27;21032;-47
2022/06/05 02:58:25;;;;;;;4.57;4.23;;;24.00;57.30;;;;;;5101871;27;20615;-48
2022/06/05 03:04:07;;;;;;;3.93;3.73;;;24.00;57.30;;;;;;5081764;27;20869;-48
2022/06/05 03:06:49;;;;;;;4.13;3.90;;;24.00;57.30;;;;;;5058595;28;20941;-47
2022/06/05 03:09:29;;;;;;;4.93;4.63;;;24.00;57.30;;;;;;5080913;28;20526;-47
2022/06/05 03:12:10;;;;;;;4.40;4.10;;;24.00;57.30;;;;;;5088532;27;20593;-47
2022/06/05 03:14:55;;;;;;;4.73;4.43;;;24.00;57.30;;;;;;5075968;27;20534;-49
2022/06/05 03:17:37;;;;;;;4.80;4.50;;;24.00;57.30;;;;;;5063416;27;20642;-48
2022/06/05 03:20:17;;;;;;;4.27;3.90;;;24.00;57.30;;;;;;5123171;27;20915;-46
2022/06/05 03:22:59;;;;;;;4.00;3.70;;;24.00;57.30;;;;;;5082862;28;20589;-72
2022/06/05 03:25:42;;;;;;;5.00;4.63;;;24.00;58.40;;;;;;5061995;28;20519;-47
2022/06/05 03:28:25;;;;;;;3.90;3.70;;;24.00;57.40;;;;;;5118217;27;20560;-49
2022/06/05 03:31:08;;;;;;;4.43;4.13;;;24.00;57.30;;;;;;5088370;27;20773;-47
2022/06/05 03:33:50;;;;;;;4.03;3.83;;;24.00;57.30;;;;;;5081698;28;20544;-48
2022/06/05 03:36:31;;;;;;;4.77;4.47;;;24.00;57.40;;;;;;5069856;27;20535;-48
2022/06/05 03:39:12;;;;;;;4.83;4.53;;;23.90;57.20;;;;;;5115177;27;20559;-47
2022/06/05 03:41:54;;;;;;;5.00;4.70;;;23.90;57.20;;;;;;5088215;27;20719;-48
2022/06/05 03:44:38;;;;;;;4.90;4.60;;;23.90;57.20;;;;;;5078291;27;20598;-48
2022/06/05 03:47:18;;;;;;;4.30;4.00;;;23.90;57.20;;;;;;5078445;27;20545;-47
2022/06/05 03:50:01;;;;;;;5.00;4.70;;;23.90;57.20;;;;;;5122684;27;20608;-48
2022/06/05 03:52:42;;;;;;;5.03;4.57;;;23.90;57.30;;;;;;5060841;27;21070;-48
2022/06/05 03:55:23;;;;;;;4.20;3.90;;;23.90;57.30;;;;;;5081022;27;20555;-48
2022/06/05 03:58:04;;;;;;;4.63;4.33;;;23.90;57.30;;;;;;5102757;27;20547;-48
2022/06/05 04:00:45;;;;;;;3.97;3.77;;;23.90;57.30;;;;;;5121290;27;20500;-47
2022/06/05 04:03:26;;;;;;;4.50;4.27;;;23.90;57.40;;;;;;5122469;27;20826;-48
2022/06/05 04:06:08;;;;;;;4.47;4.20;;;23.90;57.30;;;;;;5071300;27;21089;-48
2022/06/05 04:08:50;;;;;;;4.20;3.90;;;23.90;57.40;;;;;;5076537;28;20537;-47
2022/06/05 04:11:33;;;;;;;4.23;4.03;;;23.90;57.40;;;;;;5114543;27;20571;-48
2022/06/05 04:14:14;;;;;;;4.73;4.33;;;23.90;57.40;;;;;;5068349;27;21047;-48
2022/06/05 04:16:55;;;;;;;4.87;4.57;;;23.90;57.40;;;;;;5088207;27;20569;-48
2022/06/05 04:19:36;;;;;;;4.20;4.00;;;23.90;57.30;;;;;;5101557;27;21045;-48
2022/06/05 04:22:30;;;;;;;4.87;4.57;;;23.90;57.30;;;;;;5046988;27;21004;-48
2022/06/05 04:25:15;;;;;;;5.17;4.77;;;23.80;57.30;;;;;;5122473;27;20918;-47
2022/06/05 04:27:56;;;;;;;4.90;4.40;;;23.80;57.40;;;;;;5059525;27;20538;-48
2022/06/05 04:30:38;;;;;;;4.27;4.03;;;23.90;57.50;;;;;;5143733;27;20587;-48
2022/06/05 04:33:19;;;;;;;5.00;4.60;;;23.80;57.30;;;;;;5122724;27;20577;-48
2022/06/05 04:36:00;;;;;;;4.93;4.63;;;23.80;57.30;;;;;;5109206;27;20546;-48
2022/06/05 04:38:41;;;;;;;4.40;4.10;;;23.80;57.50;;;;;;5114891;27;20917;-47
2022/06/05 04:41:24;;;;;;;5.10;4.80;;;23.90;57.50;;;;;;5075286;28;20587;-72
2022/06/05 04:44:07;;;;;;;4.70;4.40;;;23.80;57.40;;;;;;5118637;27;20530;-48
2022/06/05 04:46:47;;;;;;;4.50;4.10;;;23.80;57.40;;;;;;5071672;27;20547;-50
2022/06/05 04:49:29;;;;;;;4.73;4.43;;;23.80;57.50;;;;;;5122919;27;20549;-47
2022/06/05 04:52:12;;;;;;;4.47;4.20;;;23.80;57.50;;;;;;5044074;27;20552;-49
2022/06/05 04:54:59;;;;;;;4.33;4.03;;;23.80;57.50;;;;;;5080677;27;20596;-48
2022/06/05 04:57:39;;;;;;;4.63;4.23;;;23.80;57.60;;;;;;5075048;27;20601;-47
2022/06/05 05:00:21;;;;;;;4.97;4.57;;;23.80;57.50;;;;;;5079734;27;20948;-48
2022/06/05 05:03:02;;;;;;;4.67;4.27;;;23.80;57.60;;;;;;5123432;27;20587;-48
2022/06/05 05:05:44;;;;;;;4.77;4.43;;;23.80;57.70;;;;;;5137370;27;20599;-48
2022/06/05 05:08:25;;;;;;;4.73;4.43;;;23.80;57.60;;;;;;5075291;28;20545;-47
2022/06/05 05:11:07;;;;;;;5.40;5.10;;;23.80;57.50;;;;;;5108468;27;21078;-47
2022/06/05 05:13:48;;;;;;;4.60;4.30;;;23.80;57.60;;;;;;5121835;27;20882;-48
2022/06/05 05:16:30;;;;;;;4.20;3.90;;;23.70;57.60;;;;;;5099213;27;20549;-47
2022/06/05 05:19:19;;;;;;;4.13;3.93;;;23.80;57.70;;;;;;5122256;27;20865;-47
2022/06/05 05:22:00;;;;;;;4.70;4.20;;;23.80;57.70;;;;;;5070232;27;20546;-47
2022/06/05 05:24:40;;;;;;;4.67;4.37;;;23.80;57.80;;;;;;5060428;28;20537;-48
2022/06/05 05:27:20;;;;;;;4.93;4.53;;;23.70;57.60;;;;;;5098911;27;1239419;-47
2022/06/05 05:30:02;;;;;;;4.30;4.10;;;23.70;57.60;;;;;;5079832;28;20582;-48
2022/06/05 05:32:42;;;;;;;4.50;4.20;;;23.70;57.70;;;;;;5063420;27;20545;-48
2022/06/05 05:35:24;;;;;;;4.43;4.13;;;23.70;57.70;;;;;;5080782;27;20564;-49
2022/06/05 05:38:05;;;;;;;4.13;3.93;;;23.70;57.70;;;;;;5104218;27;21167;-46
2022/06/05 05:43:44;;;;;;;5.43;5.13;;;23.70;57.80;;;;;;5077552;28;20618;-47
2022/06/05 05:46:26;;;;;;;4.87;4.57;;;23.70;57.80;;;;;;5073602;28;20633;-46
2022/06/05 05:49:07;;;;;;;5.20;4.80;;;23.70;57.80;;;;;;5090596;27;20605;-47
2022/06/05 05:51:48;;;;;;;4.87;4.40;;;23.70;57.90;;;;;;5092369;27;20587;-48
2022/06/05 05:54:32;;;;;;;4.43;4.13;;;23.70;58.00;;;;;;5055119;28;20735;-49
2022/06/05 05:57:12;;;;;;;5.33;5.03;;;23.70;57.90;;;;;;5068327;28;20586;-48
2022/06/05 05:59:55;;;;;;;4.60;4.30;;;23.70;57.90;;;;;;5079879;28;20920;-48
2022/06/05 06:02:37;;;;;;;4.00;3.70;;;23.70;58.00;;;;;;5069361;27;20671;-48
2022/06/05 06:05:19;;;;;;;4.90;4.60;;;23.70;58.10;;;;;;5121685;27;20733;-48
2022/06/05 06:08:01;;;;;;;3.93;3.73;;;23.70;58.10;;;;;;5080224;28;21060;-46
2022/06/05 06:10:43;;;;;;;4.47;4.13;;;23.70;58.10;;;;;;5101933;27;20549;-47
2022/06/05 06:13:24;;;;;;;3.87;3.67;;;23.70;58.10;;;;;;5116268;27;20536;-48
2022/06/05 06:16:07;;;;;;;5.30;4.80;;;23.70;58.20;;;;;;5076604;27;20565;-48
2022/06/05 06:18:49;;;;;;;4.47;4.17;;;23.70;58.10;;;;;;5114472;27;20554;-47
2022/06/05 06:21:31;;;;;;;5.00;4.63;;;23.70;58.20;;;;;;5113135;27;20981;-48
2022/06/05 06:24:14;;;;;;;5.00;4.70;;;23.70;58.20;;;;;;5079547;28;20553;-47
2022/06/05 06:26:59;;;;;;;5.80;4.30;;;23.60;58.10;;;;;;5090209;27;21009;-48
2022/06/05 06:29:42;;;;;;;5.00;4.60;;;23.70;58.20;;;;;;5074698;27;20621;-47
2022/06/05 06:32:23;;;;;;;4.60;4.30;;;23.60;58.10;;;;;;5062713;27;20602;-48
2022/06/05 06:35:06;;;;;;;5.03;4.73;;;23.70;58.20;;;;;;5079781;28;20544;-48
2022/06/05 06:37:47;;;;;;;5.03;4.70;;;23.60;58.20;;;;;;5048856;27;20953;-48
2022/06/05 06:40:28;;;;;;;4.60;4.30;;;23.60;58.20;;;;;;5081218;27;20515;-47
2022/06/05 06:43:09;;;;;;;4.00;3.77;;;23.60;58.20;;;;;;5111838;27;20538;-48
2022/06/05 06:45:51;;;;;;;5.10;4.73;;;23.60;58.30;;;;;;5113944;27;21082;-47
2022/06/05 06:48:32;;;;;;;4.50;4.20;;;23.60;58.30;;;;;;5074217;28;20587;-48
2022/06/05 06:51:15;;;;;;;4.13;3.93;;;23.60;58.30;;;;;;5095445;27;20986;-48
2022/06/05 06:53:55;;;;;;;4.40;4.10;;;23.60;58.30;;;;;;5089152;27;20558;-48
2022/06/05 06:56:37;;;;;;;4.73;4.43;;;23.60;58.40;;;;;;5095441;27;20579;-47
2022/06/05 06:59:18;;;;;;;4.80;4.50;;;23.60;58.40;;;;;;5068776;28;21123;-48
2022/06/05 07:01:59;;;;;;;5.00;4.70;;;23.60;58.40;;;;;;5064118;28;20558;-47
2022/06/05 07:04:41;;;;;;;4.63;4.33;;;23.60;58.50;;;;;;5152377;27;20604;-47
2022/06/05 07:07:22;;;;;;;4.73;4.43;;;23.60;58.50;;;;;;5111828;27;20549;-47
2022/06/05 07:10:06;;;;;;;4.90;4.60;;;23.60;58.50;;;;;;5129220;27;20793;-48
2022/06/05 07:12:47;;;;;;;5.17;4.77;;;23.60;58.60;;;;;;5062367;27;20627;-48
2022/06/05 07:15:33;;;;;;;4.70;4.40;;;23.60;58.70;;;;;;5107816;27;20563;-48
2022/06/05 07:18:15;;;;;;;5.17;4.87;;;23.60;58.70;;;;;;5098138;27;20602;-47
2022/06/05 07:20:55;;;;;;;5.00;4.70;;;23.60;58.80;;;;;;5086496;27;20560;-47
2022/06/05 07:23:37;;;;;;;4.10;3.90;;;23.60;58.80;;;;;;5102762;27;20537;-48
2022/06/05 07:26:20;;;;;;;4.53;4.20;;;23.60;58.80;;;;;;5050481;27;21188;-48
2022/06/05 07:29:04;;;;;;;5.00;4.70;;;23.60;58.90;;;;;;5135557;27;20576;-48
2022/06/05 07:31:52;;;;;;;4.57;4.30;;;23.60;58.90;;;;;;5068383;27;20569;-49
2022/06/05 07:34:39;;;;;;;4.83;4.53;;;23.60;58.90;;;;;;5089353;28;21344;-48
2022/06/05 07:37:26;;;;;;;5.13;4.80;;;23.60;58.80;;;;;;5074389;27;20647;-48
2022/06/05 07:40:09;;;;;;;4.93;4.63;;;23.50;59.00;;;;;;5134884;27;20266;-48
2022/06/05 07:42:49;;;;;;;5.10;4.80;;;23.60;59.10;;;;;;5060635;27;20553;-48
2022/06/05 07:45:31;;;;;;;4.90;4.60;;;23.60;59.10;;;;;;5113234;27;20514;-47
2022/06/05 07:48:14;;;;;;;4.50;4.20;;;23.50;59.10;;;;;;5122436;27;20611;-48
2022/06/05 07:57:02;;;;;;;5.33;4.93;;;23.50;59.60;;;;;;5069540;27;20906;-47
2022/06/05 07:59:44;;;;;;;5.27;4.87;;;23.50;59.70;;;;;;5103452;27;20568;-45
2022/06/05 08:02:28;;;;;;;5.13;4.73;;;23.50;59.80;;;;;;5049862;28;20580;-48
2022/06/05 08:05:10;;;;;;;5.67;5.10;;;23.50;59.90;;;;;;5079418;28;20849;-49
2022/06/05 08:07:51;;;;;;;4.97;4.57;;;23.50;59.90;;;;;;5102608;27;20588;-48
2022/06/05 08:10:32;;;;;;;5.13;4.77;;;23.50;59.90;;;;;;5067319;28;20536;-48
2022/06/05 08:13:12;;;;;;;5.20;4.90;;;23.50;60.10;;;;;;5120151;27;20539;-49
2022/06/05 08:15:52;;;;;;;5.23;4.93;;;23.50;60.20;;;;;;5139634;27;20919;-47
2022/06/05 08:18:34;;;;;;;6.07;5.67;;;23.50;60.30;;;;;;5101466;27;20869;-48
2022/06/05 08:21:15;;;;;;;5.30;5.00;;;23.50;60.30;;;;;;5070271;28;20596;-48
2022/06/05 08:23:55;;;;;;;5.20;4.90;;;23.50;60.50;;;;;;5164053;27;20563;-48
2022/06/05 08:26:36;;;;;;;5.20;4.90;;;23.50;60.50;;;;;;5072482;28;20623;-47
2022/06/05 08:29:18;;;;;;;5.60;5.20;;;23.50;60.50;;;;;;5068784;27;20537;-48
2022/06/05 08:32:00;;;;;;;5.33;5.00;;;23.40;60.50;;;;;;5096321;27;20548;-47
2022/06/05 08:34:40;;;;;;;5.70;5.30;;;23.40;60.80;;;;;;5099984;27;20575;-47
2022/06/05 08:43:34;;;;;;;5.50;5.10;;;23.40;61.00;;;;;;5091899;27;22046;-47
2022/06/05 08:46:25;;;;;;;6.10;5.70;;;23.40;61.30;;;;;;5068848;28;20572;-47
2022/06/05 08:49:17;;;;;;;6.67;6.10;;;23.40;61.20;;;;;;4998330;27;20539;-48
2022/06/05 08:52:05;;;;;;;5.43;5.13;;;23.40;61.30;;;;;;5069565;28;20533;-47
2022/06/05 08:54:52;;;;;;;5.77;5.37;;;23.40;61.30;;;;;;5105099;27;20583;-48
2022/06/05 08:57:40;;;;;;;5.67;5.27;;;23.40;61.50;;;;;;5070926;27;21364;-48
2022/06/05 09:00:29;;;;;;;5.93;5.53;;;23.40;61.30;;;;;;5099526;27;20568;-47
2022/06/05 09:03:21;;;;;;;5.83;5.40;;;23.40;61.50;;;;;;5080688;28;20577;-46
2022/06/05 09:06:10;;;;;;;5.27;4.87;;;23.40;61.30;;;;;;5076764;28;20537;-48
2022/06/05 09:08:56;;;;;;;5.53;5.23;;;23.40;61.40;;;;;;5071062;27;20579;-48
2022/06/05 09:11:45;;;;;;;5.47;5.17;;;23.40;61.30;;;;;;5073769;27;20544;-48
2022/06/05 09:14:33;;;;;;;5.50;5.20;;;23.40;61.50;;;;;;5067076;27;20562;-47
2022/06/05 09:17:17;;;;;;;5.27;4.97;;;23.40;61.40;;;;;;5108248;27;20576;-48
2022/06/05 09:19:58;;;;;;;5.27;4.87;;;23.30;61.40;;;;;;5081407;28;20593;-47
2022/06/05 09:22:48;;;;;;;5.80;5.40;;;23.30;61.60;;;;;;5127923;27;20552;-48
2022/06/05 09:25:46;;;;;;;5.00;4.70;;;23.40;62.10;;;;;;5121477;27;20525;-47
2022/06/05 09:29:09;;;;;;;6.40;6.00;;;23.30;61.50;;;;;;5077735;28;20625;-47
2022/06/05 09:32:11;;;;;;;6.00;5.60;;;23.30;62.00;;;;;;5072958;27;21141;-48
2022/06/05 09:34:59;;;;;;;5.80;5.47;;;23.30;62.40;;;;;;5099478;27;20577;-49
2022/06/05 09:37:45;;;;;;;6.60;5.90;;;23.30;62.20;;;;;;5059234;27;20654;-47
2022/06/05 09:40:30;;;;;;;5.33;4.93;;;23.30;62.50;;;;;;5083997;27;20603;-48
2022/06/05 09:43:35;;;;;;;6.50;5.90;;;23.30;62.30;;;;;;5058864;28;20605;-47
2022/06/05 09:46:37;;;;;;;6.13;5.73;;;23.30;62.60;;;;;;5103928;27;20892;-47
2022/06/05 09:49:25;;;;;;;5.77;5.37;;;23.30;62.80;;;;;;5121759;27;20549;-47
2022/06/05 09:52:14;;;;;;;6.07;5.60;;;23.30;62.80;;;;;;5062850;27;20575;-48
2022/06/05 09:55:02;;;;;;;5.30;5.00;;;23.30;62.80;;;;;;5123913;27;21075;-48
2022/06/05 10:01:23;;;;;;;5.63;5.33;;;23.30;62.90;;;;;;5110265;27;21092;-47
2022/06/05 10:04:06;;;;;;;5.23;4.93;;;23.30;62.60;;;;;;5080223;28;20523;-48
2022/06/05 10:06:51;;;;;;;5.57;5.27;;;23.30;62.80;;;;;;5081430;27;20543;-47
2022/06/05 10:09:34;;;;;;;5.67;5.17;;;23.30;63.00;;;;;;5074690;28;20556;-47
2022/06/05 10:12:23;;;;;;;5.37;5.07;;;23.30;63.10;;;;;;5111130;27;20357;-48
2022/06/05 10:15:20;;;;;;;5.63;5.23;;;23.30;63.10;;;;;;5110304;27;20556;-48
2022/06/05 10:18:05;;;;;;;5.50;4.97;;;23.30;63.10;;;;;;5058824;27;20651;-47
2022/06/05 10:20:56;;;;;;;5.00;4.60;;;23.30;63.10;;;;;;5079881;28;20851;-48
2022/06/05 10:23:51;;;;;;;5.20;4.90;;;23.30;62.90;;;;;;5120739;27;20525;-47
2022/06/05 10:26:35;;;;;;;5.40;5.10;;;23.30;63.00;;;;;;5073275;27;20595;-49
2022/06/05 10:29:23;;;;;;;6.07;5.67;;;23.30;63.10;;;;;;5067334;28;20541;-50
2022/06/05 10:32:07;;;;;;;5.80;5.40;;;23.30;63.40;;;;;;5067527;28;20589;-47
2022/06/05 10:34:55;;;;;;;6.47;5.97;;;23.30;63.60;;;;;;5098610;27;20553;-47
2022/06/05 10:37:41;;;;;;;5.73;5.33;;;23.30;63.70;;;;;;5068820;27;20588;-48
2022/06/05 10:40:31;;;;;;;6.30;5.90;;;23.30;63.70;;;;;;5117196;27;20538;-47
2022/06/05 10:43:17;;;;;;;5.33;5.03;;;23.30;63.70;;;;;;5073034;28;21263;-49
2022/06/05 10:46:02;;;;;;;6.67;6.27;;;23.30;64.00;;;;;;5112131;27;20741;-49
2022/06/05 10:48:50;;;;;;;6.23;5.83;;;23.30;63.80;;;;;;5086760;27;20553;-48
2022/06/05 10:51:35;;;;;;;5.83;5.37;;;23.30;63.80;;;;;;5096381;27;21143;-49
2022/06/05 10:54:29;;;;;;;6.27;5.87;;;23.30;63.90;;;;;;5079991;27;20512;-48
2022/06/05 10:57:16;;;;;;;5.80;5.40;;;23.20;64.10;;;;;;5068718;28;20536;-48
2022/06/05 11:00:03;;;;;;;5.50;5.13;;;23.30;63.90;;;;;;5104518;27;20819;-49
2022/06/05 11:03:11;;;;;;;5.90;5.53;;;23.20;63.50;;;;;;5063637;27;20563;-48
2022/06/05 11:06:12;;;;;;;5.03;4.63;;;23.20;64.10;;;;;;5077737;27;20532;-48
2022/06/05 11:09:04;;;;;;;4.50;4.20;;;23.20;63.60;;;;;;5140520;27;20988;-48
2022/06/05 11:14:59;;;;;;;4.93;4.63;;;23.20;63.60;;;;;;5116915;27;20565;-48
2022/06/05 11:17:51;;;;;;;5.10;4.70;;;23.30;63.90;;;;;;5058998;27;21121;-47
2022/06/05 11:20:35;;;;;;;4.90;4.60;;;23.20;63.80;;;;;;5101660;27;20531;-49
2022/06/05 11:23:21;;;;;;;4.97;4.67;;;23.30;63.70;;;;;;5061073;28;20558;-48
2022/06/05 11:26:11;;;;;;;4.70;4.40;;;23.20;63.10;;;;;;5075336;27;20539;-48
2022/06/05 11:29:01;;;;;;;5.20;4.80;;;23.30;63.50;;;;;;5112917;27;20545;-49
2022/06/05 11:31:52;;;;;;;4.13;3.93;;;23.20;63.30;;;;;;5095709;27;20900;-48
2022/06/05 11:34:48;;;;;;;5.30;4.90;;;23.30;63.80;;;;;;5124405;27;20577;-48
2022/06/05 11:37:41;;;;;;;4.90;4.60;;;23.20;63.80;;;;;;5055828;27;20564;-48
2022/06/05 11:40:32;;;;;;;4.60;4.30;;;23.20;63.80;;;;;;5118885;27;21041;-48
2022/06/05 11:43:27;;;;;;;4.80;4.50;;;23.30;63.70;;;;;;5135473;27;20567;-49
2022/06/05 11:46:35;;;;;;;5.50;5.10;;;23.30;64.00;;;;;;5099842;27;20533;-48
2022/06/05 11:49:23;;;;;;;5.17;4.87;;;23.20;63.60;;;;;;5140101;22;20629;-49
2022/06/05 11:52:14;;;;;;;4.70;4.40;;;23.20;63.90;;;;;;5085566;27;20562;-48
2022/06/05 11:55:02;;;;;;;4.80;4.50;;;23.20;63.80;;;;;;5079310;28;20577;-48
2022/06/05 11:57:56;;;;;;;4.50;4.20;;;23.30;64.10;;;;;;5059885;27;20561;-48
2022/06/05 12:00:44;;;;;;;4.40;4.10;;;23.30;64.30;;;;;;5095014;27;20553;-48
2022/06/05 12:03:32;;;;;;;4.90;4.60;;;23.30;64.30;;;;;;5081736;28;20527;-49
2022/06/05 12:06:22;;;;;;;5.17;4.87;;;23.30;64.20;;;;;;5094667;27;20816;-48
2022/06/05 12:09:08;;;;;;;4.87;4.57;;;23.30;63.80;;;;;;5103089;27;21090;-48
2022/06/05 12:12:05;;;;;;;4.60;4.30;;;23.30;64.10;;;;;;5110938;27;21143;-48
2022/06/05 12:14:50;;;;;;;5.33;5.03;;;23.30;63.90;;;;;;5103603;27;20559;-48
2022/06/05 12:17:41;;;;;;;4.43;4.13;;;23.30;64.10;;;;;;5064650;27;20574;-48
2022/06/05 12:20:36;;;;;;;5.10;4.80;;;23.30;63.70;;;;;;5081709;28;20581;-47
2022/06/05 12:23:25;;;;;;;4.73;4.43;;;23.30;64.40;;;;;;5131813;27;20676;-47
2022/06/05 12:26:17;;;;;;;4.20;4.00;;;23.30;64.20;;;;;;5117433;27;21046;-48
2022/06/05 12:29:07;;;;;;;4.70;4.40;;;23.30;64.20;;;;;;5100984;27;20687;-48
2022/06/05 12:31:58;;;;;;;5.43;5.10;;;23.30;63.90;;;;;;5092714;27;20595;-48
2022/06/05 12:34:46;;;;;;;5.70;5.30;;;23.20;64.20;;;;;;5121370;27;20568;-47
2022/06/05 12:37:40;;;;;;;5.10;4.80;;;23.20;64.20;;;;;;5120868;27;20303;-47
2022/06/05 12:40:40;;;;;;;5.30;4.90;;;23.20;64.10;;;;;;5083007;27;20808;-49
2022/06/05 12:48:41;;;;;;;5.60;5.20;;;23.30;65.20;;;;;;4901559;29;20472;-47
2022/06/05 12:51:52;;;;;;;5.77;5.37;;;23.20;65.20;;;;;;5064380;27;20606;-47
2022/06/05 12:55:18;;;;;;;5.97;5.57;;;23.20;65.30;;;;;;5102636;27;20526;-48
2022/06/05 12:58:46;;;;;;;5.37;4.97;;;23.20;65.70;;;;;;5059721;27;20865;-48
2022/06/05 13:01:44;;;;;;;5.63;5.27;;;23.20;65.40;;;;;;5053086;27;1293766;-49
2022/06/05 13:19:45;;;;;;;5.23;4.93;;;23.20;65.90;;;;;;5101329;27;20530;-49
2022/06/05 13:23:40;;;;;;;4.60;4.30;;;23.10;66.80;;;;;;5105565;27;20556;-48
2022/06/05 13:27:16;;;;;;;5.10;4.80;;;23.10;65.90;;;;;;5071475;27;21100;-49
2022/06/05 13:30:07;;;;;;;6.43;5.90;;;23.10;65.80;;;;;;5123883;27;21104;-48
2022/06/05 13:32:56;;;;;;;6.87;6.37;;;23.10;66.00;;;;;;5072737;27;20542;-48
2022/06/05 13:35:44;;;;;;;5.80;5.40;;;23.10;66.80;;;;;;5155671;27;20579;-47
2022/06/05 13:38:32;;;;;;;7.27;6.63;;;23.10;66.90;;;;;;5110491;27;20620;-48
2022/06/05 13:41:28;;;;;;;6.60;6.07;;;23.10;66.80;;;;;;5089197;27;20929;-49
2022/06/05 13:44:34;;;;;;;5.43;5.13;;;23.10;66.80;;;;;;5099334;27;20515;-48
2022/06/05 13:47:29;;;;;;;5.80;5.30;;;23.10;67.20;;;;;;5067299;27;20643;-47
2022/06/05 13:50:38;;;;;;;5.70;5.30;;;23.00;66.80;;;;;;5084489;28;20533;-48
2022/06/05 13:53:23;;;;;;;6.17;5.57;;;23.00;66.80;;;;;;5023678;28;20524;-45
2022/06/05 14:11:52;;;;;;;11.80;4.53;;;23.00;66.00;;;;;;5078600;28;20592;-48
2022/06/05 14:14:49;;;;;;;4.80;4.40;;;23.00;66.70;;;;;;5079206;28;21109;-47
2022/06/05 14:21:53;;;;;;;4.03;3.83;;;23.00;66.80;;;;;;5076202;27;21017;-48
2022/06/05 14:39:23;;;;;;;4.30;3.70;;;23.00;66.70;;;;;;5091080;27;20904;-48
2022/06/05 14:42:31;;;;;;;4.07;3.77;;;23.00;67.30;;;;;;5062414;27;20557;-47
2022/06/05 14:45:19;;;;;;;3.77;3.57;;;23.00;66.80;;;;;;5060225;28;21056;-49
2022/06/05 14:48:07;;;;;;;3.63;3.43;;;23.00;67.00;;;;;;5062350;27;20598;-48
2022/06/05 14:50:52;;;;;;;3.40;3.20;;;23.00;67.00;;;;;;5113924;27;20867;-48
2022/06/05 14:53:40;;;;;;;3.77;3.57;;;23.00;66.70;;;;;;5080359;28;20574;-49
2022/06/05 14:59:36;;;;;;;3.43;3.13;;;23.00;66.70;;;;;;5116009;27;20533;-48
2022/06/05 15:02:26;;;;;;;3.93;3.70;;;23.00;66.80;;;;;;5066879;28;20541;-48
2022/06/05 15:05:12;;;;;;;3.67;3.47;;;23.00;66.80;;;;;;5077667;28;20850;-47
2022/06/05 15:07:59;;;;;;;4.20;3.90;;;23.00;66.70;;;;;;5101492;27;20948;-48
2022/06/05 15:10:45;;;;;;;3.40;3.20;;;23.00;66.70;;;;;;5081690;28;21042;-48
2022/06/05 15:13:32;;;;;;;3.63;3.43;;;22.90;66.60;;;;;;5075759;28;20594;-48
2022/06/05 15:16:18;;;;;;;3.60;3.30;;;22.90;66.60;;;;;;5075560;28;20539;-46
2022/06/05 15:19:05;;;;;;;3.93;3.63;;;23.00;66.70;;;;;;5017197;28;21307;-49
2022/06/05 15:21:58;;;;;;;3.83;3.63;;;23.00;66.80;;;;;;5130302;27;20544;-47
2022/06/05 15:24:43;;;;;;;4.07;3.77;;;22.90;66.70;;;;;;5121004;27;20519;-50
2022/06/05 15:27:48;;;;;;;3.60;3.30;;;22.90;66.60;;;;;;5054485;28;20548;-48
2022/06/05 15:30:33;;;;;;;3.83;3.63;;;22.90;66.60;;;;;;5017843;28;20531;-48
2022/06/05 15:33:22;;;;;;;3.43;3.23;;;22.90;66.60;;;;;;5122686;27;20513;-48
2022/06/05 15:36:09;;;;;;;4.03;3.73;;;22.90;66.60;;;;;;5112204;27;20606;-47
2022/06/05 15:39:06;;;;;;;3.30;3.10;;;22.90;66.60;;;;;;5063584;28;20920;-48
2022/06/05 15:42:04;;;;;;;3.57;3.37;;;22.90;66.60;;;;;;5136868;27;21155;-48
2022/06/05 15:45:06;;;;;;;4.30;4.00;;;22.90;66.60;;;;;;5126378;27;21029;-48
2022/06/05 15:48:16;;;;;;;3.90;3.60;;;22.90;66.60;;;;;;5031464;27;20581;-48
2022/06/05 15:51:09;;;;;;;3.63;3.43;;;22.90;66.60;;;;;;5078208;27;20663;-49